To NAV CANADA Home Page Login to a new session Search on AWWS site Feedback and Comments Disclaimer Vers la page française équivalente Tips FAQ What's new on the site To the Forecasts and Observations / NOTAM section To "File a Flight Plan" website Publications and other links Update of the User's profile FIC Telephone Numbers My Weather Data Folder Route Weather Data Regional Weather Data Local Weather Data To the Forecasts and Observations / NOTAM section
Request Generated 08/22/2017 at 03:33:01 UTC . Weather information available at that time is displayed.

METAR/TAF

SCHEFFERVILLE/QC    (show WxCam)

SPECI CYKL 220132Z AUTO 15005KT 7SM -RA FEW007 SCT032 BKN040 OVC060
10/10 A2963 RMK TS/LTNG TEMPO UNAVBL SLP049 DENSITY ALT 1800FT=
SPECI CYKL 220124Z AUTO 15004KT 110V200 5SM RA BR SCT030 BKN043
OVC060 10/10 A2964 RMK SLP050 DENSITY ALT 1800FT=
METAR CYKL 220100Z AUTO 14005KT 100V170 6SM -RA BR FEW016 SCT026
BKN043 OVC065 10/10 A2964 RMK SLP052 DENSITY ALT 1800FT=
SPECI CYKL 220056Z AUTO 13003KT 100V200 7SM -RA SCT016 BKN026 BKN043
OVC055 11/10 A2964 RMK SLP053 DENSITY ALT 1800FT=
SPECI CYKL 220045Z AUTO VRB02KT 6SM -RA BR SCT015 BKN022 BKN031
OVC060 11/10 A2964 RMK SLP054 DENSITY ALT 1800FT=
SPECI CYKL 220039Z AUTO 11004KT 060V140 3SM -RA BR BKN015 BKN022
OVC033 11/10 A2965 RMK SLP055 DENSITY ALT 1800FT=
SPECI CYKL 220017Z AUTO 00000KT 2 1/2SM RA BR BKN017 OVC024 11/10
A2966 RMK SLP059 DENSITY ALT 1900FT=
SPECI CYKL 220012Z AUTO 00000KT 5SM RA BR OVC019 11/10 A2966 RMK
SLP058 DENSITY ALT 1900FT=
SPECI CYKL 212342Z AUTO 13005KT 9SM SCT019 BKN024 BKN030 OVC048 11/10
A2965 RMK SLP055 DENSITY ALT 1900FT=
SPECI CYKL 212356Z AUTO 13003KT 9SM -RA BKN019 BKN024 BKN030 OVC048
11/10 A2965 RMK SLP055 DENSITY ALT 1900FT=
METAR CYKL 220000Z AUTO VRB02KT 9SM -RA BKN019 BKN024 BKN030 OVC048
11/10 A2965 RMK SLP056 DENSITY ALT 1900FT=
SPECI CYKL 212340Z AUTO 13005KT 9SM SCT019 BKN030 OVC048 11/10 A2964
RMK SLP053 DENSITY ALT 1900FT=
METAR CYKL 212300Z AUTO 10004KT 9SM BKN023 BKN055 OVC077 11/10 A2966
RMK SLP058 DENSITY ALT 1900FT=
SPECI CYKL 212259Z AUTO 10004KT 9SM BKN023 BKN055 OVC077 11/10 A2966
RMK SLP058 DENSITY ALT 1900FT=

TAF CYKL 220139Z 2202/2214 14005KT P6SM -RA SCT020 OVC050 TEMPO
2202/2205 3SM -RA BR BKN007 OVC020
FM220500 23008KT 4SM -RA BR OVC007 TEMPO 2205/2213 6SM -RA BR
SCT007 OVC012
BECMG 2206/2208 32010G20KT
FM221300 34012KT 6SM BR OVC009
RMK FCST BASED ON AUTO OBS. NXT FCST BY 220800Z=
Your time UTC time
Weather data provided by Environment Canada and NAV CANADA